ADDS METAR Data INFO
IDs: Format: Raw Decoded Include TAF

Data at: 0209 UTC 20 Sep 2017

KF44 200155Z AUTO 14004KT 10SM CLR 27/21 A2984 RMK AO2
KF44 200135Z AUTO 15004KT 10SM CLR 28/21 A2984 RMK AO2
KF44 200115Z AUTO 17004KT 10SM CLR 28/21 A2983 RMK AO2
KF44 200055Z AUTO 16005KT 10SM CLR 28/21 A2982 RMK AO2
KF44 200035Z AUTO 16006KT 10SM CLR 29/21 A2982 RMK AO2
KF44 200015Z AUTO 16009KT 10SM CLR 30/21 A2982 RMK AO2
KF44 192355Z AUTO 17010KT 10SM SCT045 30/21 A2981 RMK AO2
KF44 192335Z AUTO 16010KT 10SM SCT045 SCT050 SCT070 31/21 A2981 RMK AO2
KF44 192315Z AUTO 17010G15KT 10SM SCT050 SCT070 32/21 A2981 RMK AO2
KF44 192255Z AUTO 17009G16KT 10SM SCT050 32/20 A2980 RMK AO2
KF44 192235Z AUTO 17010KT 10SM SCT050 32/20 A2980 RMK AO2
KF44 192215Z AUTO 18006G14KT 10SM CLR 33/20 A2981 RMK AO2
KF44 192155Z AUTO 19009G14KT 10SM SCT050 SCT060 33/20 A2981 RMK AO2
KF44 192135Z AUTO 19008KT 160V220 10SM SCT050 SCT060 33/21 A2982 RMK AO2
KF44 192115Z AUTO 16010KT 10SM SCT046 SCT060 33/21 A2983 RMK AO2
KF44 192055Z AUTO 16009KT 10SM SCT048 SCT060 33/21 A2983 RMK AO2
KF44 192035Z AUTO 18009G17KT 10SM SCT048 33/21 A2984 RMK AO2
KF44 192015Z AUTO 21007KT 10SM SCT046 SCT060 33/21 A2986 RMK AO2
KF44 191955Z AUTO 17011G14KT 10SM SCT043 SCT060 BKN080 34/21 A2986 RMK AO2
KF44 191935Z AUTO 17006KT 10SM SCT060 SCT070 32/21 A2987 RMK AO2
KF44 191915Z AUTO 20005KT 10SM CLR 33/21 A2989 RMK AO2
KF44 191855Z AUTO 17012G15KT 10SM SCT050 32/21 A2989 RMK AO2
KF44 191835Z AUTO 18009G14KT 10SM SCT047 SCT050 32/21 A2991 RMK AO2
KF44 191815Z AUTO 19007KT 10SM SCT038 SCT048 32/21 A2992 RMK AO2
KF44 191755Z AUTO 20005G14KT 10SM SCT036 SCT043 31/21 A2993 RMK AO2
KF44 191730Z AUTO 19007G15KT 10SM BKN034 BKN044 31/21 A2994 RMK AO2
KF44 191715Z AUTO 22006KT 10SM SCT032 BKN038 BKN044 30/21 A2994 RMK AO2
KF44 191655Z AUTO 19009G14KT 10SM BKN030 BKN037 30/21 A2995 RMK AO2
KF44 191635Z AUTO 19006KT 10SM BKN026 BKN032 29/21 A2995 RMK AO2
KF44 191615Z AUTO 21004KT 10SM BKN024 OVC032 28/21 A2995 RMK AO2
KF44 191555Z AUTO 17009KT 10SM BKN024 29/22 A2996 RMK AO2
KF44 191535Z AUTO 20008KT 10SM BKN022 OVC026 27/22 A2996 RMK AO2
KF44 191515Z AUTO 21006KT 10SM BKN018 BKN023 26/22 A2996 RMK AO2
KF44 191455Z AUTO 19006KT 10SM BKN015 27/23 A2996 RMK AO2 LTG DSNT N
KF44 191435Z AUTO 18006KT 10SM BKN009 26/23 A2996 RMK AO2
KF44 191415Z AUTO 19006G14KT 10SM BKN009 25/23 A2996 RMK AO2
KF44 191355Z AUTO 19003KT 10SM BKN007 25/23 A2996 RMK AO2
KF44 191335Z AUTO 19008KT 7SM OVC007 23/23 A2996 RMK AO2
KF44 191315Z AUTO 20005KT 7SM OVC005 23/23 A2995 RMK AO2
KF44 191255Z AUTO 19003KT 7SM OVC005 23/23 A2995 RMK AO2
KF44 191235Z AUTO 18004KT 7SM OVC005 22/22 A2995 RMK AO2
KF44 191215Z AUTO 18005KT 10SM OVC005 22/22 A2995 RMK AO2
KF44 191155Z AUTO 19004KT 10SM OVC005 22/22 A2995 RMK AO2
KF44 191135Z AUTO 20004KT 10SM OVC005 22/22 A2995 RMK AO2
KF44 191115Z AUTO 19005KT 10SM OVC007 22/22 A2994 RMK AO2
KF44 191055Z AUTO 19004KT 10SM BKN009 BKN032 OVC038 22/22 A2994 RMK AO2
KF44 191035Z AUTO 18005KT 10SM BKN009 BKN022 OVC029 22/22 A2994 RMK AO2
KF44 191015Z AUTO 18005KT 10SM OVC007 23/23 A2994 RMK AO2
KF44 190955Z AUTO 18005KT 10SM OVC007 22/22 A2994 RMK AO2
KF44 190935Z AUTO 17005KT 10SM OVC007 22/22 A2994 RMK AO2
KF44 190915Z AUTO 17005KT 10SM BKN005 OVC011 22/22 A2993 RMK AO2
KF44 190855Z AUTO 18005KT 10SM OVC005 22/22 A2993 RMK AO2
KF44 190835Z AUTO 17007KT 10SM OVC003 22/22 A2992 RMK AO2
KF44 190815Z AUTO 16007KT 7SM OVC003 22/22 A2992 RMK AO2
KF44 190755Z AUTO 15006KT 7SM OVC003 22/22 A2993 RMK AO2
KF44 190735Z AUTO 16003KT 7SM BKN003 BKN007 21/21 A2993 RMK AO2
KF44 190715Z AUTO 00000KT 5SM BR SCT003 21/21 A2992 RMK AO2
KF44 190655Z AUTO 00000KT 7SM CLR 21/21 A2992 RMK AO2
KF44 190635Z AUTO 00000KT 7SM CLR 21/21 A2993 RMK AO2
KF44 190615Z AUTO 00000KT 10SM CLR 21/21 A2993 RMK AO2
KF44 190555Z AUTO 00000KT 10SM CLR 22/22 A2994 RMK AO2
KF44 190535Z AUTO 00000KT 10SM CLR 22/22 A2993 RMK AO2
KF44 190515Z AUTO 00000KT 10SM CLR 22/22 A2994 RMK AO2
KF44 190455Z AUTO 00000KT 10SM CLR 22/22 A2994 RMK AO2
KF44 190435Z AUTO 00000KT 10SM CLR 23/23 A2994 RMK AO2
KF44 190415Z AUTO 17003KT 10SM CLR 23/23 A2994 RMK AO2
KF44 190355Z AUTO 16003KT 10SM CLR 23/22 A2994 RMK AO2
KF44 190335Z AUTO 16004KT 10SM CLR 24/22 A2994 RMK AO2
KF44 190315Z AUTO 15006KT 10SM CLR 24/21 A2995 RMK AO2
KF44 190255Z AUTO 15005KT 10SM CLR 25/21 A2994 RMK AO2
KF44 190235Z AUTO 15007KT 10SM CLR 25/21 A2994 RMK AO2
KF44 190215Z AUTO 15005KT 10SM CLR 25/21 A2994 RMK AO2
KF44 190150Z AUTO 15006KT 10SM CLR 26/22 A2994 RMK AO2
KF44 190135Z AUTO 15007KT 10SM CLR 26/22 A2993 RMK AO2
KF44 190115Z AUTO 14005KT 10SM CLR 26/22 A2992 RMK AO2
KF44 190055Z AUTO 13003KT 10SM CLR 27/21 A2992 RMK AO2
KF44 190035Z AUTO 13004KT 10SM CLR 27/21 A2992 RMK AO2
KF44 190015Z AUTO 14004KT 10SM CLR 28/21 A2992 RMK AO2
KF44 182355Z AUTO 14007KT 10SM CLR 28/21 A2992 RMK AO2
KF44 182335Z AUTO 13007KT 10SM CLR 29/20 A2991 RMK AO2
KF44 182315Z AUTO 14010KT 10SM CLR 30/20 A2991 RMK AO2
KF44 182255Z AUTO 15007KT 10SM CLR 30/20 A2991 RMK AO2
KF44 182235Z AUTO 13009KT 10SM CLR 30/20 A2991 RMK AO2
KF44 182215Z AUTO 15010G14KT 10SM CLR 31/21 A2991 RMK AO2
KF44 182155Z AUTO 17010KT 10SM SCT065 31/21 A2990 RMK AO2
KF44 182135Z AUTO 16010G14KT 10SM SCT055 33/19 A2991 RMK AO2 LTG DSNT SE
KF44 182115Z AUTO 17009KT 10SM SCT055 33/18 A2991 RMK AO2
KF44 182055Z AUTO 00000KT 10SM BKN060 OVC065 32/18 A2992 RMK AO2
KF44 182035Z AUTO 36004KT 10SM BKN060 OVC065 32/18 A2992 RMK AO2
KF44 182015Z AUTO 00000KT 10SM BKN060 32/18 A2994 RMK AO2 LTG DSNT S
KF44 181955Z AUTO 00000KT 7SM CLR 32/18 A2994 RMK AO2
KF44 181935Z AUTO 00000KT 10SM CLR 32/18 A2996 RMK AO2
KF44 181915Z AUTO 00000KT 10SM CLR 32/18 A2997 RMK AO2
KF44 181855Z AUTO 00000KT 10SM CLR 31/20 A2999 RMK AO2
KF44 181835Z AUTO 31004KT 10SM CLR 30/20 A3000 RMK AO2
KF44 181815Z AUTO 00000KT 10SM SCT035 SCT080 31/20 A3001 RMK AO2
KF44 181755Z AUTO 30003KT 10SM SCT035 SCT041 SCT060 31/21 A3002 RMK AO2
KF44 181735Z AUTO 34003KT 10SM SCT038 SCT044 SCT060 30/21 A3004 RMK AO2
KF44 181715Z AUTO 12004KT 10SM SCT022 SCT028 29/21 A3004 RMK AO2
KF44 181655Z AUTO 21004KT 10SM BKN022 29/21 A3004 RMK AO2
KF44 181635Z AUTO 00000KT 10SM BKN020 BKN026 OVC075 27/22 A3005 RMK AO2
KF44 181615Z AUTO 19004KT 10SM BKN015 OVC025 27/22 A3005 RMK AO2
KF44 181555Z AUTO 18005KT 10SM BKN013 OVC022 26/23 A3005 RMK AO2
KF44 181535Z AUTO 20004KT 10SM BKN011 OVC022 25/23 A3005 RMK AO2
KF44 181515Z AUTO 00000KT 10SM OVC008 24/24 A3004 RMK AO2
KF44 181455Z AUTO 19003KT 7SM OVC004 23/23 A3004 RMK AO2
KF44 181435Z AUTO 20005KT 5SM BR OVC006 23/23 A3004 RMK AO2
KF44 181415Z AUTO 18005KT 10SM OVC004 23/23 A3003 RMK AO2